Time;durP1;ratioP1;P1;durP2;ratioP2;P2;SDS_P1;SDS_P2;PMS_P1;PMS_P2;Temp;Humidity;BMP_temperature;BMP_pressure;BME280_temperature;BME280_humidity;BME280_pressure;Samples;Min_cycle;Max_cycle;Signal;HPM_P1;HPM_P2
2022/07/07 00:00:51;;;;;;;5.55;4.12;;;;;;;13.96;90.23;94814.55;1658996;85;21065;-55
2022/07/07 00:03:20;;;;;;;5.80;3.77;;;;;;;13.93;90.13;94814.08;1662940;85;21184;-55
2022/07/07 00:05:48;;;;;;;4.45;3.02;;;;;;;13.96;90.23;94813.17;1662945;85;21572;-54
2022/07/07 00:08:17;;;;;;;3.30;3.10;;;;;;;13.97;90.27;94808.54;1672489;85;21026;-54
2022/07/07 00:10:45;;;;;;;4.78;3.37;;;;;;;13.95;90.17;94811.61;1667929;84;20970;-55
2022/07/07 00:13:13;;;;;;;3.02;2.62;;;;;;;13.87;90.27;94813.19;1664897;85;21014;-55
2022/07/07 00:15:45;;;;;;;3.27;2.98;;;;;;;13.83;90.50;94813.98;1662521;85;21233;-55
2022/07/07 00:18:12;;;;;;;3.40;2.90;;;;;;;13.77;90.30;94809.69;1654978;85;20976;-55
2022/07/07 00:20:40;;;;;;;4.87;3.08;;;;;;;13.73;90.63;94811.86;1641951;84;21227;-55
2022/07/07 00:23:08;;;;;;;3.45;3.15;;;;;;;13.69;90.59;94811.27;1659205;84;21082;-55
2022/07/07 00:25:36;;;;;;;4.92;3.15;;;;;;;13.69;91.01;94817.39;1661547;85;21069;-54
2022/07/07 00:28:05;;;;;;;5.65;2.83;;;;;;;13.70;90.90;94810.63;1662334;85;21265;-54
2022/07/07 00:30:33;;;;;;;4.53;3.15;;;;;;;13.70;90.62;94803.72;1668615;84;20966;-55
2022/07/07 00:33:01;;;;;;;3.42;2.87;;;;;;;13.69;90.59;94808.50;1666941;85;21521;-54
2022/07/07 00:35:30;;;;;;;3.33;3.12;;;;;;;13.65;90.39;94813.41;1665395;85;21107;-54
2022/07/07 00:37:58;;;;;;;4.62;3.35;;;;;;;13.56;90.43;94815.42;1666671;85;21128;-54
2022/07/07 00:40:26;;;;;;;3.50;3.20;;;;;;;13.51;90.72;94810.53;1664059;85;21177;-55
2022/07/07 00:42:54;;;;;;;3.45;3.12;;;;;;;13.47;90.86;94814.08;1662292;85;21073;-55
2022/07/07 00:45:22;;;;;;;3.47;3.17;;;;;;;13.48;91.16;94815.61;1647306;85;21063;-54
2022/07/07 00:47:52;;;;;;;7.15;3.30;;;;;;;13.47;91.27;94814.08;1666913;85;21249;-54
2022/07/07 00:50:20;;;;;;;7.53;3.58;;;;;;;13.46;91.36;94815.30;1668801;85;21070;-55
2022/07/07 00:52:48;;;;;;;6.40;3.33;;;;;;;13.47;91.57;94816.84;1667091;85;21175;-55
2022/07/07 00:55:16;;;;;;;4.40;2.87;;;;;;;13.53;91.91;94812.99;1676347;85;20983;-55
2022/07/07 00:57:44;;;;;;;5.35;3.15;;;;;;;13.55;91.08;94806.98;1664125;85;21025;-55
2022/07/07 01:00:14;;;;;;;3.85;3.00;;;;;;;13.57;91.11;94808.66;1668977;85;21516;-55
2022/07/07 01:02:46;;;;;;;3.50;3.20;;;;;;;13.52;90.27;94807.91;1663494;84;21027;-55
2022/07/07 01:05:13;;;;;;;3.58;3.30;;;;;;;13.39;90.04;94810.86;1672499;85;21159;-55
2022/07/07 01:07:42;;;;;;;5.65;4.08;;;;;;;13.32;90.21;94811.79;1655091;85;21096;-55
2022/07/07 01:10:10;;;;;;;5.03;4.00;;;;;;;13.27;90.41;94804.88;1659103;85;21105;-54
2022/07/07 01:12:40;;;;;;;3.77;3.37;;;;;;;13.24;90.60;94804.43;1651742;84;21050;-54
2022/07/07 01:15:10;;;;;;;3.47;3.17;;;;;;;13.22;90.69;94811.03;1649187;86;21002;-54
2022/07/07 01:17:39;;;;;;;3.72;3.20;;;;;;;13.21;90.78;94803.98;1645831;86;21129;-54
2022/07/07 01:20:10;;;;;;;3.72;3.42;;;;;;;13.21;90.54;94808.13;1634073;86;21195;-55
2022/07/07 01:22:39;;;;;;;3.67;3.37;;;;;;;13.21;90.54;94810.11;1652905;85;21081;-55
2022/07/07 01:25:08;;;;;;;3.55;3.25;;;;;;;13.21;90.32;94801.22;1651843;85;21449;-54
2022/07/07 01:27:36;;;;;;;3.77;3.47;;;;;;;13.19;90.45;94807.04;1650462;86;20969;-55
2022/07/07 01:30:06;;;;;;;3.42;3.22;;;;;;;13.18;90.86;94811.03;1652381;86;21163;-55
2022/07/07 01:32:35;;;;;;;10.18;4.62;;;;;;;13.17;90.83;94811.66;1648755;85;21124;-55
2022/07/07 01:35:03;;;;;;;10.13;5.05;;;;;;;13.18;90.94;94811.81;1647429;86;21092;-55
2022/07/07 01:37:32;;;;;;;20.82;9.15;;;;;;;13.18;91.14;94809.05;1650127;85;21163;-55
2022/07/07 01:40:01;;;;;;;15.13;8.23;;;;;;;13.20;91.21;94814.09;1620263;86;20986;-55
2022/07/07 01:42:29;;;;;;;8.15;6.28;;;;;;;13.17;91.25;94821.94;1646858;86;21236;-55
2022/07/07 01:44:58;;;;;;;10.18;6.45;;;;;;;13.12;91.03;94815.02;1649230;86;20978;-55
2022/07/07 01:47:26;;;;;;;19.07;7.20;;;;;;;13.08;91.02;94821.95;1628351;87;20986;-54
2022/07/07 01:49:54;;;;;;;11.10;5.92;;;;;;;13.07;91.33;94812.88;1607940;86;21096;-54
2022/07/07 01:52:22;;;;;;;4.60;4.20;;;;;;;13.07;91.16;94814.27;1644432;86;21105;-56
2022/07/07 01:54:51;;;;;;;10.85;5.47;;;;;;;13.05;90.90;94817.35;1654466;85;21313;-54
2022/07/07 01:57:20;;;;;;;7.25;4.83;;;;;;;12.97;91.02;94815.52;1650147;85;21053;-54
2022/07/07 01:59:48;;;;;;;8.98;5.20;;;;;;;12.93;91.30;94817.64;1646049;85;21519;-57
2022/07/07 02:02:16;;;;;;;16.85;6.53;;;;;;;12.90;91.19;94820.54;1646318;85;21058;-55
2022/07/07 02:04:45;;;;;;;20.20;7.25;;;;;;;12.89;91.21;94812.11;1648416;86;20977;-54
2022/07/07 02:07:14;;;;;;;6.03;4.83;;;;;;;12.87;91.08;94823.59;1652705;86;21229;-54
2022/07/07 02:09:43;;;;;;;5.20;3.30;;;;;;;12.81;90.87;94819.14;1646856;85;21627;-54
2022/07/07 02:12:11;;;;;;;3.40;3.10;;;;;;;12.76;90.49;94820.54;1647226;86;21109;-55
2022/07/07 02:14:40;;;;;;;4.25;3.20;;;;;;;12.72;89.99;94824.67;1628415;85;21056;-55
2022/07/07 02:17:08;;;;;;;5.83;3.92;;;;;;;12.70;90.14;94816.83;1631411;86;21445;-55
2022/07/07 02:19:36;;;;;;;3.85;3.50;;;;;;;12.71;90.27;94818.99;1647074;85;21211;-55
2022/07/07 02:22:04;;;;;;;7.90;4.97;;;;;;;12.63;89.93;94821.28;1651805;86;21114;-54
2022/07/07 02:24:33;;;;;;;8.65;4.40;;;;;;;12.54;90.41;94821.88;1651191;86;20997;-55
2022/07/07 02:27:00;;;;;;;13.18;4.67;;;;;;;12.47;90.35;94820.78;1649178;86;21544;-55
2022/07/07 02:29:30;;;;;;;4.47;3.22;;;;;;;12.42;90.29;94826.91;1647813;86;21498;-55
2022/07/07 02:31:58;;;;;;;3.50;3.20;;;;;;;12.38;90.43;94827.67;1648808;85;21260;-54
2022/07/07 02:34:28;;;;;;;5.92;3.52;;;;;;;12.34;90.23;94831.19;1635385;85;21262;-55
2022/07/07 02:36:58;;;;;;;3.75;3.45;;;;;;;12.31;90.11;94833.48;1652922;85;20997;-54
2022/07/07 02:39:26;;;;;;;3.52;3.10;;;;;;;12.23;90.04;94830.84;1650811;85;21613;-54
2022/07/07 02:41:54;;;;;;;3.42;3.22;;;;;;;12.20;90.36;94833.73;1650014;86;21028;-54
2022/07/07 02:44:22;;;;;;;6.58;3.27;;;;;;;12.21;90.72;94830.53;1650086;85;21845;-55
2022/07/07 02:46:50;;;;;;;6.08;3.70;;;;;;;12.25;91.17;94832.53;1648430;86;21501;-54
2022/07/07 02:49:19;;;;;;;4.95;4.42;;;;;;;12.34;91.75;94828.44;1654684;85;21222;-54
2022/07/07 02:51:47;;;;;;;5.40;4.10;;;;;;;12.44;91.72;94835.49;1649474;86;21020;-55
2022/07/07 02:54:17;;;;;;;5.87;3.98;;;;;;;12.51;91.42;94828.92;1631194;86;21434;-55
2022/07/07 02:56:44;;;;;;;4.90;4.30;;;;;;;12.56;91.14;94829.09;1651773;85;21061;-55
2022/07/07 02:59:12;;;;;;;6.10;3.85;;;;;;;12.54;90.98;94830.16;1628147;87;21001;-54
2022/07/07 03:01:40;;;;;;;6.28;4.20;;;;;;;12.56;90.61;94835.36;1646633;85;21007;-54
2022/07/07 03:04:08;;;;;;;4.53;3.72;;;;;;;12.55;90.54;94826.17;1650147;85;20981;-55
2022/07/07 03:06:36;;;;;;;8.15;4.20;;;;;;;12.56;90.24;94835.98;1652969;85;21021;-55
2022/07/07 03:09:05;;;;;;;6.17;3.80;;;;;;;12.53;89.95;94834.90;1648590;86;21040;-57
2022/07/07 03:11:32;;;;;;;5.87;3.92;;;;;;;12.50;89.67;94839.20;1628829;86;21568;-53
2022/07/07 03:14:00;;;;;;;11.10;4.70;;;;;;;12.46;89.39;94835.80;1648517;85;21084;-54
2022/07/07 03:16:29;;;;;;;5.92;4.42;;;;;;;12.40;89.73;94837.64;1629406;87;21124;-54
2022/07/07 03:18:59;;;;;;;4.50;3.60;;;;;;;12.39;89.96;94840.84;1650507;85;20977;-55
2022/07/07 03:21:27;;;;;;;4.45;3.55;;;;;;;12.41;90.00;94841.93;1653657;84;21755;-54
2022/07/07 03:23:55;;;;;;;4.35;3.95;;;;;;;12.39;89.92;94832.56;1656604;85;21034;-54
2022/07/07 03:26:23;;;;;;;5.42;4.05;;;;;;;12.38;90.25;94836.55;1649568;85;21503;-54
2022/07/07 03:28:52;;;;;;;5.37;3.87;;;;;;;12.37;90.25;94833.03;1650446;84;21061;-56
2022/07/07 03:31:20;;;;;;;4.15;3.75;;;;;;;12.36;90.10;94832.87;1655583;85;21578;-56
2022/07/07 03:33:48;;;;;;;3.98;3.55;;;;;;;12.33;89.95;94829.66;1634078;86;21137;-54
2022/07/07 03:36:17;;;;;;;7.42;4.28;;;;;;;12.27;89.65;94823.19;1666729;85;21019;-55
2022/07/07 03:38:44;;;;;;;4.75;4.25;;;;;;;12.19;90.00;94835.74;1635835;85;21014;-55
2022/07/07 03:41:13;;;;;;;7.15;4.05;;;;;;;12.19;90.38;94833.58;1650340;85;21058;-55
2022/07/07 03:43:41;;;;;;;9.18;4.17;;;;;;;12.17;90.59;94842.33;1636664;85;21085;-54
2022/07/07 03:46:08;;;;;;;4.72;4.00;;;;;;;12.14;90.82;94840.48;1651085;85;22086;-54
2022/07/07 03:48:37;;;;;;;4.33;4.00;;;;;;;12.14;90.82;94830.83;1657324;85;20965;-55
2022/07/07 03:51:06;;;;;;;4.50;4.20;;;;;;;12.15;90.96;94832.36;1655408;84;21019;-54
2022/07/07 03:53:34;;;;;;;4.50;4.10;;;;;;;12.13;90.56;94831.27;1650605;85;21498;-54
2022/07/07 03:56:02;;;;;;;4.75;4.35;;;;;;;12.11;90.80;94833.09;1629626;86;21070;-54
2022/07/07 03:58:31;;;;;;;5.67;4.30;;;;;;;12.10;90.52;94837.70;1653535;85;21200;-55
2022/07/07 04:01:00;;;;;;;6.65;3.55;;;;;;;12.06;90.82;94830.19;1664918;85;21054;-54
2022/07/07 04:03:28;;;;;;;4.78;4.37;;;;;;;12.11;90.96;94832.34;1659124;85;20970;-55
2022/07/07 04:05:56;;;;;;;4.42;4.03;;;;;;;12.15;91.01;94830.98;1655030;85;21006;-54
2022/07/07 04:08:25;;;;;;;12.30;5.00;;;;;;;12.21;90.60;94834.67;1650854;85;21205;-55
2022/07/07 04:10:54;;;;;;;4.90;4.40;;;;;;;12.25;90.41;94829.02;1652250;85;21222;-56
2022/07/07 04:13:22;;;;;;;6.83;4.12;;;;;;;12.31;90.57;94837.62;1655644;85;21084;-54
2022/07/07 04:15:50;;;;;;;4.28;3.98;;;;;;;12.42;90.71;94832.42;1651887;85;21513;-53
2022/07/07 04:18:18;;;;;;;5.20;3.90;;;;;;;12.60;91.02;94831.08;1650145;85;21104;-53
2022/07/07 04:20:46;;;;;;;4.40;4.00;;;;;;;12.78;91.05;94829.12;1659570;84;20986;-53
2022/07/07 04:23:15;;;;;;;4.47;4.03;;;;;;;12.94;90.59;94823.94;1650575;85;21141;-53
2022/07/07 04:25:43;;;;;;;6.55;3.90;;;;;;;13.07;89.84;94837.74;1666162;85;20972;-52
2022/07/07 04:28:11;;;;;;;5.25;3.85;;;;;;;13.11;88.82;94842.48;1631508;85;21062;-51
2022/07/07 04:30:41;;;;;;;4.65;3.65;;;;;;;13.16;88.45;94838.36;1650663;85;21094;-53
2022/07/07 04:33:10;;;;;;;4.70;4.17;;;;;;;13.20;88.22;94831.45;1655547;85;21018;-52
2022/07/07 04:35:39;;;;;;;6.70;3.87;;;;;;;13.28;88.16;94836.05;1652645;85;21280;-53
2022/07/07 04:38:07;;;;;;;5.08;4.08;;;;;;;13.38;87.96;94830.66;1613063;86;20979;-56
2022/07/07 04:40:35;;;;;;;4.85;3.42;;;;;;;13.42;87.59;94832.67;1628382;86;21498;-55
2022/07/07 04:43:03;;;;;;;4.22;3.45;;;;;;;13.41;86.93;94829.12;1651017;85;21107;-56
2022/07/07 04:45:31;;;;;;;5.95;4.08;;;;;;;13.43;86.44;94832.81;1653684;85;20986;-53
2022/07/07 04:48:00;;;;;;;4.78;3.67;;;;;;;13.44;86.09;94832.34;1655239;85;21248;-55
2022/07/07 04:50:29;;;;;;;10.70;3.83;;;;;;;13.43;85.86;94827.29;1657628;85;20974;-55
2022/07/07 04:52:58;;;;;;;7.53;3.95;;;;;;;13.38;85.60;94832.03;1659594;85;21105;-53
2022/07/07 04:55:28;;;;;;;8.60;4.37;;;;;;;13.39;85.97;94834.35;1652921;84;21160;-54
2022/07/07 04:57:57;;;;;;;4.28;3.87;;;;;;;13.49;86.11;94834.47;1661055;84;21053;-55
2022/07/07 05:00:26;;;;;;;8.78;3.90;;;;;;;13.63;86.19;94837.23;1649483;84;21172;-58
2022/07/07 05:02:54;;;;;;;7.30;3.72;;;;;;;13.75;86.05;94834.28;1660931;84;20966;-56
2022/07/07 05:05:23;;;;;;;4.72;3.67;;;;;;;13.88;86.13;94828.55;1656566;85;21027;-56
2022/07/07 05:07:51;;;;;;;3.83;3.55;;;;;;;14.02;86.05;94830.66;1657152;84;21124;-54
2022/07/07 05:10:20;;;;;;;7.35;3.77;;;;;;;14.18;85.93;94831.70;1660731;85;21128;-55
2022/07/07 05:12:49;;;;;;;4.58;3.83;;;;;;;14.31;85.33;94826.70;1637261;84;21242;-55
2022/07/07 05:15:17;;;;;;;3.42;2.95;;;;;;;14.47;84.94;94829.86;1678105;84;21030;-55
2022/07/07 05:17:45;;;;;;;7.28;3.58;;;;;;;14.60;84.50;94831.16;1662310;85;20995;-55
2022/07/07 05:20:13;;;;;;;3.90;3.60;;;;;;;14.71;84.11;94832.02;1650940;84;21005;-55
2022/07/07 05:22:41;;;;;;;5.87;3.50;;;;;;;14.83;83.65;94832.41;1649103;84;21549;-57
2022/07/07 05:25:11;;;;;;;4.15;3.70;;;;;;;14.94;82.87;94829.25;1618474;84;21229;-58
2022/07/07 05:27:39;;;;;;;6.47;3.00;;;;;;;15.05;82.02;94820.39;1668136;83;21189;-55
2022/07/07 05:30:08;;;;;;;3.45;2.80;;;;;;;15.12;81.51;94818.02;1646630;85;20987;-55
2022/07/07 05:32:36;;;;;;;3.20;2.95;;;;;;;15.19;81.21;94817.64;1656671;84;21558;-58
2022/07/07 05:35:05;;;;;;;4.10;3.70;;;;;;;15.22;81.20;94815.94;1669851;84;20974;-58
2022/07/07 05:37:33;;;;;;;4.15;3.60;;;;;;;15.24;81.15;94822.55;1657715;84;21120;-55
2022/07/07 05:40:01;;;;;;;8.23;5.28;;;;;;;15.30;81.23;94819.28;1640255;85;21564;-56
2022/07/07 05:42:30;;;;;;;6.60;3.65;;;;;;;15.38;80.80;94812.12;1655270;84;21069;-56
2022/07/07 05:45:00;;;;;;;6.83;3.70;;;;;;;15.45;80.43;94811.77;1658544;85;21470;-55
2022/07/07 05:47:27;;;;;;;5.92;4.35;;;;;;;15.52;80.41;94805.83;1651210;85;21143;-56
2022/07/07 05:49:56;;;;;;;6.72;4.25;;;;;;;15.58;79.56;94809.45;1653507;85;21930;-56
2022/07/07 05:52:24;;;;;;;5.10;4.20;;;;;;;15.63;79.44;94808.03;1661638;84;21025;-55
2022/07/07 05:54:52;;;;;;;15.85;4.60;;;;;;;15.68;79.95;94808.73;1660567;84;21290;-58
2022/07/07 05:57:21;;;;;;;6.47;3.47;;;;;;;15.74;79.95;94815.92;1660791;83;21179;-57
2022/07/07 05:59:49;;;;;;;3.75;3.37;;;;;;;15.85;80.04;94807.02;1639379;84;21113;-55
2022/07/07 06:02:17;;;;;;;3.50;3.10;;;;;;;15.89;79.56;94803.45;1640340;85;21258;-58
2022/07/07 06:04:45;;;;;;;4.33;3.22;;;;;;;15.92;79.19;94810.17;1644323;85;21064;-59
2022/07/07 06:07:13;;;;;;;4.40;3.25;;;;;;;15.99;78.29;94808.41;1666363;84;21002;-55
2022/07/07 06:09:41;;;;;;;4.53;3.60;;;;;;;16.11;78.09;94804.55;1666704;83;21109;-58
2022/07/07 06:12:10;;;;;;;9.63;5.95;;;;;;;16.21;78.13;94807.37;1662641;83;21120;-56
2022/07/07 06:14:39;;;;;;;4.87;3.55;;;;;;;16.27;77.58;94806.06;1656030;83;21082;-53
2022/07/07 06:17:08;;;;;;;3.40;3.10;;;;;;;16.37;77.05;94805.50;1661275;83;21312;-63
2022/07/07 06:19:59;;;;;;;2.90;2.70;;;;;;;16.53;76.92;94797.39;1639373;85;21955;-64
2022/07/07 06:22:32;;;;;;;4.62;3.37;;;;;;;16.73;76.51;94799.44;1642104;83;21112;-61
2022/07/07 06:25:00;;;;;;;4.42;3.12;;;;;;;16.90;74.43;94803.20;1633026;85;21544;-60
2022/07/07 06:27:29;;;;;;;3.60;3.17;;;;;;;16.94;72.74;94800.33;1622442;84;21172;-57
2022/07/07 06:29:57;;;;;;;7.55;3.00;;;;;;;16.88;72.66;94805.70;1658991;84;21125;-62
2022/07/07 06:32:26;;;;;;;10.18;4.47;;;;;;;16.88;73.06;94801.53;1654625;85;21047;-61
2022/07/07 06:34:55;;;;;;;4.83;3.60;;;;;;;16.92;72.82;94810.42;1649107;85;21126;-58
2022/07/07 06:37:23;;;;;;;5.92;2.60;;;;;;;16.98;72.44;94809.86;1627417;86;21177;-59
2022/07/07 06:39:51;;;;;;;7.45;3.90;;;;;;;17.08;72.46;94811.27;1649493;83;21301;-60
2022/07/07 06:42:20;;;;;;;3.75;2.72;;;;;;;17.21;72.24;94808.87;1619205;84;21069;-60
2022/07/07 06:44:50;;;;;;;4.15;3.40;;;;;;;17.35;72.30;94796.93;1648667;84;21001;-62
2022/07/07 06:47:18;;;;;;;4.47;3.10;;;;;;;17.48;73.15;94799.47;1651423;85;21431;-67
2022/07/07 06:49:46;;;;;;;6.35;3.00;;;;;;;17.61;73.23;94799.11;1635665;84;21601;-61
2022/07/07 06:52:14;;;;;;;4.15;3.37;;;;;;;17.70;73.01;94798.94;1662047;85;21142;-62
2022/07/07 06:54:48;;;;;;;5.20;3.00;;;;;;;17.83;73.81;94793.75;1649100;84;20943;-62
2022/07/07 06:57:19;;;;;;;10.18;5.17;;;;;;;18.00;73.26;94794.02;1635867;85;21102;-64
2022/07/07 06:59:46;;;;;;;5.35;3.12;;;;;;;18.16;71.95;94798.22;1654156;84;21050;-62
2022/07/07 07:02:14;;;;;;;3.35;2.77;;;;;;;18.36;72.13;94787.13;1643584;84;21198;-62
2022/07/07 07:04:42;;;;;;;3.90;2.90;;;;;;;18.59;71.86;94791.58;1640249;83;21212;-62
2022/07/07 07:07:10;;;;;;;3.65;2.77;;;;;;;18.75;69.87;94787.34;1649801;83;21554;-60
2022/07/07 07:09:39;;;;;;;10.85;2.62;;;;;;;18.83;68.72;94787.77;1650795;84;21681;-64
2022/07/07 07:12:08;;;;;;;3.65;2.47;;;;;;;18.82;67.61;94780.67;1645454;85;21089;-63
2022/07/07 07:14:44;;;;;;;3.22;2.25;;;;;;;18.82;67.62;94782.06;1644675;84;21170;-67
2022/07/07 07:17:12;;;;;;;4.37;2.70;;;;;;;18.86;67.88;94774.23;1632343;84;21249;-60
2022/07/07 07:19:40;;;;;;;3.42;2.65;;;;;;;18.95;67.70;94777.44;1655966;83;21053;-60
2022/07/07 07:22:09;;;;;;;5.97;2.72;;;;;;;18.99;66.75;94781.52;1643496;83;21026;-61
2022/07/07 07:24:39;;;;;;;2.52;2.33;;;;;;;19.06;66.42;94788.65;1649814;84;21461;-59
2022/07/07 07:27:07;;;;;;;4.97;2.70;;;;;;;19.14;65.54;94787.67;1626575;86;21475;-64
2022/07/07 07:29:35;;;;;;;6.30;4.80;;;;;;;19.22;64.63;94788.73;1650531;84;21179;-59
2022/07/07 07:32:05;;;;;;;4.42;3.27;;;;;;;19.29;63.63;94791.06;1641643;85;21127;-61
2022/07/07 07:34:36;;;;;;;3.98;2.42;;;;;;;19.36;63.53;94793.35;1638781;86;21532;-63
2022/07/07 07:37:10;;;;;;;7.72;3.10;;;;;;;19.48;64.44;94798.33;1629021;85;21142;-61
2022/07/07 07:39:40;;;;;;;3.15;2.85;;;;;;;19.75;62.87;94794.86;1637230;85;21395;-62
2022/07/07 07:42:08;;;;;;;12.85;7.92;;;;;;;20.05;63.81;94802.28;1653678;84;21156;-63
2022/07/07 07:47:24;;;;;;;2.90;2.22;;;;;;;20.53;60.88;94799.34;1654400;85;21130;-64
2022/07/07 07:49:53;;;;;;;5.42;2.77;;;;;;;20.62;60.75;94802.50;1612218;85;47388;-61
2022/07/07 07:52:22;;;;;;;4.45;2.22;;;;;;;20.57;60.60;94799.09;1650333;84;21058;-60
2022/07/07 07:54:50;;;;;;;3.77;2.47;;;;;;;20.54;61.48;94802.91;1661400;85;21221;-63
2022/07/07 07:57:28;;;;;;;5.87;2.60;;;;;;;20.44;62.08;94810.02;1661827;84;21380;-62
2022/07/07 07:59:59;;;;;;;3.80;2.10;;;;;;;20.29;62.05;94798.34;1676106;82;21085;-68
2022/07/07 08:02:37;;;;;;;4.17;2.35;;;;;;;20.09;60.43;94795.80;1666145;85;21039;-57
2022/07/07 08:05:06;;;;;;;2.45;2.20;;;;;;;19.89;60.95;94802.25;1648745;84;21144;-60
2022/07/07 08:07:34;;;;;;;6.58;2.17;;;;;;;19.83;62.38;94802.23;1646162;84;21324;-57
2022/07/07 08:10:02;;;;;;;3.95;2.17;;;;;;;19.88;61.89;94805.66;1670406;84;21118;-58
2022/07/07 08:12:37;;;;;;;4.87;2.25;;;;;;;19.99;62.24;94804.91;1665584;84;21021;-60
2022/07/07 08:15:03;;;;;;;7.55;2.65;;;;;;;20.12;61.79;94807.35;1648025;84;21157;-60
2022/07/07 08:17:32;;;;;;;2.65;2.15;;;;;;;20.17;61.53;94803.82;1653958;83;21037;-57
2022/07/07 08:20:00;;;;;;;2.50;1.95;;;;;;;20.21;61.04;94802.92;1661571;84;21745;-57
2022/07/07 08:22:28;;;;;;;5.03;2.10;;;;;;;20.25;59.23;94804.20;1663734;84;20903;-57
2022/07/07 08:24:56;;;;;;;3.02;2.42;;;;;;;20.23;59.61;94798.98;1653943;84;21234;-58
2022/07/07 08:27:26;;;;;;;5.55;2.27;;;;;;;20.23;60.60;94798.98;1641402;84;21450;-58
2022/07/07 08:30:01;;;;;;;3.92;1.98;;;;;;;20.20;59.86;94788.83;1593563;86;21211;-64
2022/07/07 08:32:31;;;;;;;2.62;2.22;;;;;;;20.16;59.61;94791.87;1663149;85;22167;-60
2022/07/07 08:34:59;;;;;;;2.70;2.15;;;;;;;20.13;60.59;94793.51;1670376;85;20999;-58
2022/07/07 08:37:28;;;;;;;2.37;2.12;;;;;;;20.12;60.96;94788.45;1662293;85;21024;-59
2022/07/07 08:39:56;;;;;;;7.67;2.70;;;;;;;20.23;59.55;94792.74;1653537;84;21557;-60
2022/07/07 08:42:26;;;;;;;2.35;2.15;;;;;;;20.47;59.62;94793.63;1636874;85;21139;-59
2022/07/07 08:44:53;;;;;;;2.30;2.10;;;;;;;20.76;58.75;94798.67;1659944;84;21169;-61
2022/07/07 08:47:21;;;;;;;3.55;2.00;;;;;;;21.02;56.52;94796.34;1647620;86;21160;-59
2022/07/07 08:49:51;;;;;;;4.72;2.58;;;;;;;21.10;56.14;94795.95;1646623;85;21114;-57
2022/07/07 08:52:21;;;;;;;2.35;2.15;;;;;;;21.18;55.25;94789.30;1656342;84;21085;-59
2022/07/07 08:54:49;;;;;;;3.22;1.85;;;;;;;21.29;54.82;94788.48;1657761;84;20996;-57
2022/07/07 08:57:17;;;;;;;2.87;2.47;;;;;;;21.40;54.61;94785.63;1650124;85;21460;-55
2022/07/07 08:59:45;;;;;;;3.10;1.95;;;;;;;21.52;54.31;94782.28;1596161;85;21463;-58
2022/07/07 09:02:13;;;;;;;5.90;3.95;;;;;;;21.68;54.36;94782.08;1644022;85;21089;-57
2022/07/07 09:04:40;;;;;;;3.52;2.35;;;;;;;21.85;54.96;94775.73;1675886;84;21006;-62
2022/07/07 09:07:10;;;;;;;4.37;2.17;;;;;;;22.01;55.63;94777.02;1660156;83;21171;-56
2022/07/07 09:09:48;;;;;;;3.17;2.22;;;;;;;22.02;55.12;94780.59;1639216;85;21122;-56
2022/07/07 09:12:16;;;;;;;4.72;2.60;;;;;;;21.91;54.55;94778.63;1654137;84;21091;-56
2022/07/07 09:14:47;;;;;;;6.83;2.15;;;;;;;21.93;54.99;94778.09;1662430;84;20989;-57
2022/07/07 09:17:33;;;;;;;4.00;1.90;;;;;;;22.01;54.72;94781.22;1651822;84;21136;-61
2022/07/07 09:20:15;;;;;;;3.67;2.22;;;;;;;21.98;53.01;94775.91;1640544;85;21066;-62
2022/07/07 09:22:54;;;;;;;4.67;2.25;;;;;;;21.92;53.15;94777.97;1639871;86;21242;-62
2022/07/07 09:25:24;;;;;;;5.17;2.22;;;;;;;21.80;52.71;94773.09;1641449;85;20994;-64
2022/07/07 09:28:10;;;;;;;7.20;2.67;;;;;;;21.73;54.26;94767.28;1651835;85;21562;-61
2022/07/07 09:30:45;;;;;;;5.08;2.33;;;;;;;21.74;55.05;94771.59;1658413;83;21052;-57
2022/07/07 09:33:30;;;;;;;12.88;2.45;;;;;;;21.72;53.99;94767.94;1647190;84;21235;-56
2022/07/07 09:38:41;;;;;;;2.65;1.90;;;;;;;21.60;54.05;94767.06;1646366;85;20994;-55
2022/07/07 09:41:12;;;;;;;2.60;1.75;;;;;;;21.66;54.63;94765.78;1652909;83;21092;-55
2022/07/07 09:43:53;;;;;;;3.30;2.23;;;;;;;21.89;52.95;94762.98;1664886;84;21144;-58
2022/07/07 09:46:27;;;;;;;3.30;1.90;;;;;;;22.10;53.75;94760.64;1652953;85;21130;-54
2022/07/07 09:48:58;;;;;;;5.30;2.10;;;;;;;22.30;52.79;94759.47;1660012;84;21240;-56
2022/07/07 09:51:32;;;;;;;2.42;2.12;;;;;;;22.49;51.42;94749.87;1648551;84;21526;-57
2022/07/07 09:54:14;;;;;;;2.20;1.95;;;;;;;22.72;53.00;94754.00;1646363;85;21071;-57
2022/07/07 09:56:44;;;;;;;3.47;2.12;;;;;;;22.93;54.37;94759.25;1651748;84;21062;-55
2022/07/07 09:59:16;;;;;;;2.30;1.90;;;;;;;23.20;52.39;94754.63;1648542;85;21407;-55
2022/07/07 10:01:45;;;;;;;8.93;2.72;;;;;;;23.37;50.39;94752.38;1648104;84;21304;-57
2022/07/07 10:04:19;;;;;;;6.65;2.60;;;;;;;23.40;49.38;94746.44;1650636;84;22544;-56
2022/07/07 10:06:46;;;;;;;3.08;2.00;;;;;;;23.57;49.17;94744.83;1657638;84;21555;-58
2022/07/07 10:09:19;;;;;;;6.87;1.98;;;;;;;23.74;48.50;94744.70;1661577;84;21128;-57
2022/07/07 10:11:52;;;;;;;3.08;2.42;;;;;;;23.87;48.73;94740.58;1665726;84;21667;-56
2022/07/07 10:14:26;;;;;;;3.55;1.77;;;;;;;24.03;47.35;94741.72;1672049;83;21852;-56
2022/07/07 10:16:55;;;;;;;2.65;2.12;;;;;;;24.21;47.60;94739.52;1682751;83;21046;-56
2022/07/07 10:19:25;;;;;;;3.80;2.00;;;;;;;24.43;46.05;94736.98;1665554;85;21070;-55
2022/07/07 10:21:55;;;;;;;2.20;1.90;;;;;;;24.58;44.59;94730.23;1645432;85;21000;-58
2022/07/07 10:24:29;;;;;;;1.80;1.57;;;;;;;24.63;45.14;94734.36;1647999;86;21078;-54
2022/07/07 10:26:59;;;;;;;2.40;1.60;;;;;;;24.76;45.66;94734.36;1643352;83;21539;-56
2022/07/07 10:29:52;;;;;;;4.78;2.60;;;;;;;24.94;46.22;94732.77;1636939;85;20970;-58
2022/07/07 10:32:38;;;;;;;2.10;1.80;;;;;;;25.10;43.51;94734.50;1660608;84;21422;-58
2022/07/07 10:35:13;;;;;;;2.00;1.75;;;;;;;25.18;41.26;94730.52;1660619;85;21047;-55
2022/07/07 10:37:48;;;;;;;2.30;2.05;;;;;;;25.13;41.10;94734.81;1669414;83;21549;-55
2022/07/07 10:40:30;;;;;;;5.53;2.08;;;;;;;24.90;43.87;94737.96;1672606;84;21429;-57
2022/07/07 10:43:32;;;;;;;5.92;1.87;;;;;;;24.65;45.26;94733.17;1632579;84;21207;-57
2022/07/07 10:46:03;;;;;;;5.78;2.12;;;;;;;24.49;45.86;94729.20;1621401;86;21230;-56
2022/07/07 10:48:45;;;;;;;2.10;1.90;;;;;;;24.34;45.87;94725.50;1604327;88;21062;-56
2022/07/07 10:51:21;;;;;;;5.42;1.85;;;;;;;24.63;47.17;94723.74;1643381;85;21078;-57
2022/07/07 10:54:10;;;;;;;3.45;1.72;;;;;;;25.10;45.18;94711.97;1646543;84;21895;-56
2022/07/07 10:56:59;;;;;;;5.42;1.90;;;;;;;25.63;46.04;94724.70;1644233;84;21033;-56
2022/07/07 10:59:28;;;;;;;2.20;1.85;;;;;;;26.22;43.36;94716.91;1656211;84;21074;-60
2022/07/07 11:02:09;;;;;;;1.50;1.40;;;;;;;26.74;42.80;94715.22;1658532;84;21089;-60
2022/07/07 11:04:47;;;;;;;5.65;2.17;;;;;;;27.17;40.41;94708.27;1649070;84;21100;-56
2022/07/07 11:07:21;;;;;;;2.87;1.72;;;;;;;27.51;40.23;94712.30;1642509;83;21276;-63
2022/07/07 11:10:13;;;;;;;1.60;1.50;;;;;;;27.74;39.77;94709.69;1634628;85;21039;-64
2022/07/07 11:12:42;;;;;;;5.55;1.90;;;;;;;28.14;39.54;94719.23;1626167;85;21036;-66
2022/07/07 11:15:34;;;;;;;4.33;1.80;;;;;;;28.32;37.81;94706.84;1653048;83;21089;-64
2022/07/07 11:18:09;;;;;;;2.75;1.77;;;;;;;28.16;38.30;94705.27;1678024;83;21155;-64
2022/07/07 11:20:52;;;;;;;3.85;1.50;;;;;;;27.82;38.34;94704.06;1669115;83;21217;-63
2022/07/07 11:23:20;;;;;;;3.35;1.80;;;;;;;27.35;36.94;94698.77;1621901;85;21364;-66
2022/07/07 11:25:52;;;;;;;2.27;1.60;;;;;;;27.04;37.64;94697.05;1646304;83;21100;-63
2022/07/07 11:28:20;;;;;;;3.10;2.08;;;;;;;27.06;38.05;94704.98;1647044;85;21301;-66
2022/07/07 11:30:48;;;;;;;3.10;1.77;;;;;;;26.83;36.92;94704.83;1641308;85;20975;-63
2022/07/07 11:33:16;;;;;;;2.25;2.05;;;;;;;26.73;39.13;94698.83;1660642;85;22200;-65
2022/07/07 11:35:44;;;;;;;2.08;1.70;;;;;;;26.63;39.95;94692.92;1604306;87;21174;-63
2022/07/07 11:38:13;;;;;;;4.12;1.52;;;;;;;26.59;39.52;94691.11;1645461;83;21058;-61
2022/07/07 11:40:46;;;;;;;4.67;1.42;;;;;;;26.54;39.17;94694.84;1635136;86;21223;-62
2022/07/07 11:43:24;;;;;;;3.08;1.52;;;;;;;26.61;40.08;94694.13;1663679;83;21021;-60
2022/07/07 11:45:53;;;;;;;1.57;1.43;;;;;;;26.70;38.98;94690.80;1649381;84;21241;-67
2022/07/07 11:48:21;;;;;;;4.08;1.65;;;;;;;26.72;40.14;94693.84;1652624;84;21463;-65
2022/07/07 11:50:51;;;;;;;1.52;1.37;;;;;;;26.76;42.02;94690.65;1630526;84;21612;-65